sensor_id;sensor_type;location;lat;lon;timestamp;temperature;humidity
57132;DHT22;43005;52.922;5.742;2023-12-20T00:01:27;7.70;99.90
57132;DHT22;43005;52.922;5.742;2023-12-20T00:03:53;7.70;99.90
57132;DHT22;43005;52.922;5.742;2023-12-20T00:06:20;7.60;99.90
57132;DHT22;43005;52.922;5.742;2023-12-20T00:08:47;7.60;99.90
57132;DHT22;43005;52.922;5.742;2023-12-20T00:11:14;7.60;99.90
57132;DHT22;43005;52.922;5.742;2023-12-20T00:13:41;7.60;99.90
57132;DHT22;43005;52.922;5.742;2023-12-20T00:16:10;7.60;99.90
57132;DHT22;43005;52.922;5.742;2023-12-20T00:18:41;7.60;99.90
57132;DHT22;43005;52.922;5.742;2023-12-20T00:21:08;7.60;99.90
57132;DHT22;43005;52.922;5.742;2023-12-20T00:23:35;7.60;99.90
57132;DHT22;43005;52.922;5.742;2023-12-20T00:26:02;7.50;99.90
57132;DHT22;43005;52.922;5.742;2023-12-20T00:28:28;7.60;99.90
57132;DHT22;43005;52.922;5.742;2023-12-20T00:30:57;7.50;99.90
57132;DHT22;43005;52.922;5.742;2023-12-20T00:33:26;7.50;99.90
57132;DHT22;43005;52.922;5.742;2023-12-20T00:35:55;7.50;99.90
57132;DHT22;43005;52.922;5.742;2023-12-20T00:38:22;7.60;99.90
57132;DHT22;43005;52.922;5.742;2023-12-20T00:40:49;7.50;99.90
57132;DHT22;43005;52.922;5.742;2023-12-20T00:43:16;7.60;99.90
57132;DHT22;43005;52.922;5.742;2023-12-20T00:45:44;7.60;99.90
57132;DHT22;43005;52.922;5.742;2023-12-20T00:48:11;7.60;99.90
57132;DHT22;43005;52.922;5.742;2023-12-20T00:50:39;7.60;99.90
57132;DHT22;43005;52.922;5.742;2023-12-20T00:53:06;7.60;99.90
57132;DHT22;43005;52.922;5.742;2023-12-20T00:55:33;7.60;99.90
57132;DHT22;43005;52.922;5.742;2023-12-20T00:58:00;7.60;99.90
57132;DHT22;43005;52.922;5.742;2023-12-20T01:00:27;7.60;99.90
57132;DHT22;43005;52.922;5.742;2023-12-20T01:02:54;7.60;99.90
57132;DHT22;43005;52.922;5.742;2023-12-20T01:05:21;7.60;99.90
57132;DHT22;43005;52.922;5.742;2023-12-20T01:07:50;7.60;99.90
57132;DHT22;43005;52.922;5.742;2023-12-20T01:10:17;7.60;99.90
57132;DHT22;43005;52.922;5.742;2023-12-20T01:12:44;7.60;99.90
57132;DHT22;43005;52.922;5.742;2023-12-20T01:15:11;7.70;99.90
57132;DHT22;43005;52.922;5.742;2023-12-20T01:17:38;7.70;99.90
57132;DHT22;43005;52.922;5.742;2023-12-20T01:20:07;7.70;99.90
57132;DHT22;43005;52.922;5.742;2023-12-20T01:22:34;7.70;99.90
57132;DHT22;43005;52.922;5.742;2023-12-20T01:25:06;7.70;99.90
57132;DHT22;43005;52.922;5.742;2023-12-20T01:27:33;7.80;99.90
57132;DHT22;43005;52.922;5.742;2023-12-20T01:30:00;7.70;99.90
57132;DHT22;43005;52.922;5.742;2023-12-20T01:32:27;7.70;99.90
57132;DHT22;43005;52.922;5.742;2023-12-20T01:34:54;7.80;99.90
57132;DHT22;43005;52.922;5.742;2023-12-20T01:37:21;7.80;99.90
57132;DHT22;43005;52.922;5.742;2023-12-20T01:39:49;7.90;99.90
57132;DHT22;43005;52.922;5.742;2023-12-20T01:42:18;7.90;99.90
57132;DHT22;43005;52.922;5.742;2023-12-20T01:44:45;7.90;99.90
57132;DHT22;43005;52.922;5.742;2023-12-20T01:47:13;8.00;99.90
57132;DHT22;43005;52.922;5.742;2023-12-20T01:49:40;8.00;99.90
57132;DHT22;43005;52.922;5.742;2023-12-20T01:52:08;8.00;99.90
57132;DHT22;43005;52.922;5.742;2023-12-20T01:54:36;8.00;99.90
57132;DHT22;43005;52.922;5.742;2023-12-20T01:57:04;8.00;99.90
57132;DHT22;43005;52.922;5.742;2023-12-20T01:59:33;8.00;99.90
57132;DHT22;43005;52.922;5.742;2023-12-20T02:02:03;8.00;99.90
57132;DHT22;43005;52.922;5.742;2023-12-20T02:04:30;8.10;99.90
57132;DHT22;43005;52.922;5.742;2023-12-20T02:06:59;8.10;99.90
57132;DHT22;43005;52.922;5.742;2023-12-20T02:09:26;8.00;99.90
57132;DHT22;43005;52.922;5.742;2023-12-20T02:11:54;8.10;99.90
57132;DHT22;43005;52.922;5.742;2023-12-20T02:14:21;8.00;99.90
57132;DHT22;43005;52.922;5.742;2023-12-20T02:16:49;8.10;99.90
57132;DHT22;43005;52.922;5.742;2023-12-20T02:19:17;8.10;99.90
57132;DHT22;43005;52.922;5.742;2023-12-20T02:21:47;8.10;99.90
57132;DHT22;43005;52.922;5.742;2023-12-20T02:24:14;8.00;99.90
57132;DHT22;43005;52.922;5.742;2023-12-20T02:26:43;8.10;99.90
57132;DHT22;43005;52.922;5.742;2023-12-20T02:29:10;8.10;99.90
57132;DHT22;43005;52.922;5.742;2023-12-20T02:31:37;8.00;99.90
57132;DHT22;43005;52.922;5.742;2023-12-20T02:34:04;8.00;99.90
57132;DHT22;43005;52.922;5.742;2023-12-20T02:36:31;8.00;99.90
57132;DHT22;43005;52.922;5.742;2023-12-20T02:38:59;8.00;99.90
57132;DHT22;43005;52.922;5.742;2023-12-20T02:41:26;8.00;99.90
57132;DHT22;43005;52.922;5.742;2023-12-20T02:43:53;8.00;99.90
57132;DHT22;43005;52.922;5.742;2023-12-20T02:46:20;8.00;99.90
57132;DHT22;43005;52.922;5.742;2023-12-20T02:48:47;8.00;99.90
57132;DHT22;43005;52.922;5.742;2023-12-20T02:51:14;8.00;99.90
57132;DHT22;43005;52.922;5.742;2023-12-20T02:53:41;8.00;99.90
57132;DHT22;43005;52.922;5.742;2023-12-20T02:56:09;8.00;99.90
57132;DHT22;43005;52.922;5.742;2023-12-20T02:58:36;8.00;99.90
57132;DHT22;43005;52.922;5.742;2023-12-20T03:01:03;8.00;99.90
57132;DHT22;43005;52.922;5.742;2023-12-20T03:03:30;8.00;99.90
57132;DHT22;43005;52.922;5.742;2023-12-20T03:05:58;8.00;99.90
57132;DHT22;43005;52.922;5.742;2023-12-20T03:08:24;8.00;99.90
57132;DHT22;43005;52.922;5.742;2023-12-20T03:10:51;8.00;99.90
57132;DHT22;43005;52.922;5.742;2023-12-20T03:13:20;8.00;99.90
57132;DHT22;43005;52.922;5.742;2023-12-20T03:15:47;8.00;99.90
57132;DHT22;43005;52.922;5.742;2023-12-20T03:18:14;8.00;99.90
57132;DHT22;43005;52.922;5.742;2023-12-20T03:20:41;8.00;99.90
57132;DHT22;43005;52.922;5.742;2023-12-20T03:23:08;8.00;99.90
57132;DHT22;43005;52.922;5.742;2023-12-20T03:25:35;8.00;99.90
57132;DHT22;43005;52.922;5.742;2023-12-20T03:28:02;8.00;99.90
57132;DHT22;43005;52.922;5.742;2023-12-20T03:30:30;8.00;99.90
57132;DHT22;43005;52.922;5.742;2023-12-20T03:32:57;8.00;99.90
57132;DHT22;43005;52.922;5.742;2023-12-20T03:35:24;8.10;99.90
57132;DHT22;43005;52.922;5.742;2023-12-20T03:37:51;8.10;99.90
57132;DHT22;43005;52.922;5.742;2023-12-20T03:40:18;8.10;99.90
57132;DHT22;43005;52.922;5.742;2023-12-20T03:42:45;8.10;99.90
57132;DHT22;43005;52.922;5.742;2023-12-20T03:45:12;8.00;99.90
57132;DHT22;43005;52.922;5.742;2023-12-20T03:47:40;8.10;99.90
57132;DHT22;43005;52.922;5.742;2023-12-20T03:50:08;8.00;99.90
57132;DHT22;43005;52.922;5.742;2023-12-20T03:52:35;8.10;99.90
57132;DHT22;43005;52.922;5.742;2023-12-20T03:55:02;8.00;99.90
57132;DHT22;43005;52.922;5.742;2023-12-20T03:57:29;8.10;99.90
57132;DHT22;43005;52.922;5.742;2023-12-20T03:59:55;8.00;99.90
57132;DHT22;43005;52.922;5.742;2023-12-20T04:02:22;8.10;99.90
57132;DHT22;43005;52.922;5.742;2023-12-20T04:04:50;8.20;99.90
57132;DHT22;43005;52.922;5.742;2023-12-20T04:07:18;8.20;99.90
57132;DHT22;43005;52.922;5.742;2023-12-20T04:09:45;8.20;99.90
57132;DHT22;43005;52.922;5.742;2023-12-20T04:12:13;8.30;99.90
57132;DHT22;43005;52.922;5.742;2023-12-20T04:14:40;8.30;99.90
57132;DHT22;43005;52.922;5.742;2023-12-20T04:17:07;8.30;99.90
57132;DHT22;43005;52.922;5.742;2023-12-20T04:19:34;8.30;99.90
57132;DHT22;43005;52.922;5.742;2023-12-20T04:22:03;8.40;99.90
57132;DHT22;43005;52.922;5.742;2023-12-20T04:24:30;8.40;99.90
57132;DHT22;43005;52.922;5.742;2023-12-20T04:26:57;8.40;99.90
57132;DHT22;43005;52.922;5.742;2023-12-20T04:29:24;8.40;99.90
57132;DHT22;43005;52.922;5.742;2023-12-20T04:31:51;8.40;99.90
57132;DHT22;43005;52.922;5.742;2023-12-20T04:34:18;8.50;99.90
57132;DHT22;43005;52.922;5.742;2023-12-20T04:36:45;8.50;99.90
57132;DHT22;43005;52.922;5.742;2023-12-20T04:39:14;8.50;99.90
57132;DHT22;43005;52.922;5.742;2023-12-20T04:41:41;8.50;99.90
57132;DHT22;43005;52.922;5.742;2023-12-20T04:44:08;8.50;99.90
57132;DHT22;43005;52.922;5.742;2023-12-20T04:46:35;8.50;99.90
57132;DHT22;43005;52.922;5.742;2023-12-20T04:49:02;8.50;99.90
57132;DHT22;43005;52.922;5.742;2023-12-20T04:51:29;8.50;99.90
57132;DHT22;43005;52.922;5.742;2023-12-20T04:53:56;8.50;99.90
57132;DHT22;43005;52.922;5.742;2023-12-20T04:56:25;8.50;99.90
57132;DHT22;43005;52.922;5.742;2023-12-20T04:58:52;8.50;99.90
57132;DHT22;43005;52.922;5.742;2023-12-20T05:01:19;8.50;99.90
57132;DHT22;43005;52.922;5.742;2023-12-20T05:03:46;8.50;99.90
57132;DHT22;43005;52.922;5.742;2023-12-20T05:06:13;8.50;99.90
57132;DHT22;43005;52.922;5.742;2023-12-20T05:08:40;8.50;99.90
57132;DHT22;43005;52.922;5.742;2023-12-20T05:11:07;8.50;99.90
57132;DHT22;43005;52.922;5.742;2023-12-20T05:13:36;8.60;99.90
57132;DHT22;43005;52.922;5.742;2023-12-20T05:16:03;8.60;99.90
57132;DHT22;43005;52.922;5.742;2023-12-20T05:18:31;8.60;99.90
57132;DHT22;43005;52.922;5.742;2023-12-20T05:20:58;8.60;99.90
57132;DHT22;43005;52.922;5.742;2023-12-20T05:23:25;8.60;99.90
57132;DHT22;43005;52.922;5.742;2023-12-20T05:25:52;8.60;99.90
57132;DHT22;43005;52.922;5.742;2023-12-20T05:28:19;8.60;99.90
57132;DHT22;43005;52.922;5.742;2023-12-20T05:30:47;8.60;99.90
57132;DHT22;43005;52.922;5.742;2023-12-20T05:33:14;8.60;99.90
57132;DHT22;43005;52.922;5.742;2023-12-20T05:35:41;8.60;99.90
57132;DHT22;43005;52.922;5.742;2023-12-20T05:38:08;8.60;99.90
57132;DHT22;43005;52.922;5.742;2023-12-20T05:40:38;8.60;99.90
57132;DHT22;43005;52.922;5.742;2023-12-20T05:43:04;8.70;99.90
57132;DHT22;43005;52.922;5.742;2023-12-20T05:45:32;8.60;99.90
57132;DHT22;43005;52.922;5.742;2023-12-20T05:48:00;8.60;99.90
57132;DHT22;43005;52.922;5.742;2023-12-20T05:50:27;8.70;99.90
57132;DHT22;43005;52.922;5.742;2023-12-20T05:52:54;8.70;99.90
57132;DHT22;43005;52.922;5.742;2023-12-20T05:55:21;8.70;99.90
57132;DHT22;43005;52.922;5.742;2023-12-20T05:57:51;8.70;99.90
57132;DHT22;43005;52.922;5.742;2023-12-20T06:00:19;8.70;99.90
57132;DHT22;43005;52.922;5.742;2023-12-20T06:02:46;8.70;99.90
57132;DHT22;43005;52.922;5.742;2023-12-20T06:05:17;8.70;99.90
57132;DHT22;43005;52.922;5.742;2023-12-20T06:07:48;8.70;99.90
57132;DHT22;43005;52.922;5.742;2023-12-20T06:10:22;8.70;99.90
57132;DHT22;43005;52.922;5.742;2023-12-20T06:12:54;8.70;99.90
57132;DHT22;43005;52.922;5.742;2023-12-20T06:15:22;8.70;99.90
57132;DHT22;43005;52.922;5.742;2023-12-20T06:17:49;8.80;99.90
57132;DHT22;43005;52.922;5.742;2023-12-20T06:20:17;8.80;99.90
57132;DHT22;43005;52.922;5.742;2023-12-20T06:22:44;8.80;99.90
57132;DHT22;43005;52.922;5.742;2023-12-20T06:25:11;8.80;99.90
57132;DHT22;43005;52.922;5.742;2023-12-20T06:27:38;8.80;99.90
57132;DHT22;43005;52.922;5.742;2023-12-20T06:30:10;8.80;99.90
57132;DHT22;43005;52.922;5.742;2023-12-20T06:32:37;8.80;99.90
57132;DHT22;43005;52.922;5.742;2023-12-20T06:35:06;8.80;99.90
57132;DHT22;43005;52.922;5.742;2023-12-20T06:37:36;8.80;99.90
57132;DHT22;43005;52.922;5.742;2023-12-20T06:40:11;8.90;99.90
57132;DHT22;43005;52.922;5.742;2023-12-20T06:42:38;8.90;99.90
57132;DHT22;43005;52.922;5.742;2023-12-20T06:45:06;8.90;99.90
57132;DHT22;43005;52.922;5.742;2023-12-20T06:47:35;8.80;99.90
57132;DHT22;43005;52.922;5.742;2023-12-20T06:50:06;8.80;99.90
57132;DHT22;43005;52.922;5.742;2023-12-20T06:52:35;8.80;99.90
57132;DHT22;43005;52.922;5.742;2023-12-20T06:55:03;8.80;99.90
57132;DHT22;43005;52.922;5.742;2023-12-20T06:57:30;8.80;99.90
57132;DHT22;43005;52.922;5.742;2023-12-20T06:59:57;8.80;99.90
57132;DHT22;43005;52.922;5.742;2023-12-20T07:02:24;8.80;99.90
57132;DHT22;43005;52.922;5.742;2023-12-20T07:04:54;8.80;99.90
57132;DHT22;43005;52.922;5.742;2023-12-20T07:07:21;8.80;99.90
57132;DHT22;43005;52.922;5.742;2023-12-20T07:09:51;8.80;99.90
57132;DHT22;43005;52.922;5.742;2023-12-20T07:12:18;8.90;99.90
57132;DHT22;43005;52.922;5.742;2023-12-20T07:14:45;8.90;99.90
57132;DHT22;43005;52.922;5.742;2023-12-20T07:17:15;8.90;99.90
57132;DHT22;43005;52.922;5.742;2023-12-20T07:19:42;8.90;99.90
57132;DHT22;43005;52.922;5.742;2023-12-20T07:22:09;8.80;99.90
57132;DHT22;43005;52.922;5.742;2023-12-20T07:24:41;8.90;99.90
57132;DHT22;43005;52.922;5.742;2023-12-20T07:27:12;8.90;99.90
57132;DHT22;43005;52.922;5.742;2023-12-20T07:29:39;8.90;99.90
57132;DHT22;43005;52.922;5.742;2023-12-20T07:32:08;8.80;99.90
57132;DHT22;43005;52.922;5.742;2023-12-20T07:34:35;8.90;99.90
57132;DHT22;43005;52.922;5.742;2023-12-20T07:37:02;8.80;99.90
57132;DHT22;43005;52.922;5.742;2023-12-20T07:39:29;8.90;99.90
57132;DHT22;43005;52.922;5.742;2023-12-20T07:41:56;8.90;99.90
57132;DHT22;43005;52.922;5.742;2023-12-20T07:44:26;8.90;99.90
57132;DHT22;43005;52.922;5.742;2023-12-20T07:46:56;8.90;99.90
57132;DHT22;43005;52.922;5.742;2023-12-20T07:49:28;8.90;99.90
57132;DHT22;43005;52.922;5.742;2023-12-20T07:51:55;8.90;99.90
57132;DHT22;43005;52.922;5.742;2023-12-20T07:54:22;8.90;99.90
57132;DHT22;43005;52.922;5.742;2023-12-20T07:56:51;8.80;99.90
57132;DHT22;43005;52.922;5.742;2023-12-20T07:59:18;8.80;99.90
57132;DHT22;43005;52.922;5.742;2023-12-20T08:01:47;8.90;99.90
57132;DHT22;43005;52.922;5.742;2023-12-20T08:04:15;8.90;99.90
57132;DHT22;43005;52.922;5.742;2023-12-20T08:06:45;8.80;99.90
57132;DHT22;43005;52.922;5.742;2023-12-20T08:09:12;8.90;99.90
57132;DHT22;43005;52.922;5.742;2023-12-20T08:11:39;8.90;99.90
57132;DHT22;43005;52.922;5.742;2023-12-20T08:14:06;8.90;99.90
57132;DHT22;43005;52.922;5.742;2023-12-20T08:16:36;8.80;99.90
57132;DHT22;43005;52.922;5.742;2023-12-20T08:19:05;8.80;99.90
57132;DHT22;43005;52.922;5.742;2023-12-20T08:21:32;8.70;99.90
57132;DHT22;43005;52.922;5.742;2023-12-20T08:24:05;8.70;99.90
57132;DHT22;43005;52.922;5.742;2023-12-20T08:26:38;8.70;99.90
57132;DHT22;43005;52.922;5.742;2023-12-20T08:29:05;8.70;99.90
57132;DHT22;43005;52.922;5.742;2023-12-20T08:31:33;8.70;99.90
57132;DHT22;43005;52.922;5.742;2023-12-20T08:34:02;8.70;99.90
57132;DHT22;43005;52.922;5.742;2023-12-20T08:36:34;8.70;99.90
57132;DHT22;43005;52.922;5.742;2023-12-20T08:39:02;8.70;99.90
57132;DHT22;43005;52.922;5.742;2023-12-20T08:41:31;8.70;99.90
57132;DHT22;43005;52.922;5.742;2023-12-20T08:43:59;8.70;99.90
57132;DHT22;43005;52.922;5.742;2023-12-20T08:46:29;8.80;99.90
57132;DHT22;43005;52.922;5.742;2023-12-20T08:49:03;8.80;99.90
57132;DHT22;43005;52.922;5.742;2023-12-20T08:51:30;8.80;99.90
57132;DHT22;43005;52.922;5.742;2023-12-20T08:54:02;8.80;99.90
57132;DHT22;43005;52.922;5.742;2023-12-20T08:56:33;8.90;99.90
57132;DHT22;43005;52.922;5.742;2023-12-20T08:59:03;8.90;99.90
57132;DHT22;43005;52.922;5.742;2023-12-20T09:01:30;9.00;99.90
57132;DHT22;43005;52.922;5.742;2023-12-20T09:03:57;9.10;99.90
57132;DHT22;43005;52.922;5.742;2023-12-20T09:06:25;9.20;99.90
57132;DHT22;43005;52.922;5.742;2023-12-20T09:08:54;9.30;99.90
57132;DHT22;43005;52.922;5.742;2023-12-20T09:11:23;9.40;99.90
57132;DHT22;43005;52.922;5.742;2023-12-20T09:13:50;9.50;99.90
57132;DHT22;43005;52.922;5.742;2023-12-20T09:16:17;9.60;99.90
57132;DHT22;43005;52.922;5.742;2023-12-20T09:18:44;9.70;99.90
57132;DHT22;43005;52.922;5.742;2023-12-20T09:21:13;9.80;99.90
57132;DHT22;43005;52.922;5.742;2023-12-20T09:23:41;9.80;99.90
57132;DHT22;43005;52.922;5.742;2023-12-20T09:26:08;9.80;99.90
57132;DHT22;43005;52.922;5.742;2023-12-20T09:28:36;9.70;99.90
57132;DHT22;43005;52.922;5.742;2023-12-20T09:31:04;9.60;99.90
57132;DHT22;43005;52.922;5.742;2023-12-20T09:33:32;9.30;99.90
57132;DHT22;43005;52.922;5.742;2023-12-20T09:35:59;9.10;99.90
57132;DHT22;43005;52.922;5.742;2023-12-20T09:38:28;8.90;99.90
57132;DHT22;43005;52.922;5.742;2023-12-20T09:40:55;8.70;99.90
57132;DHT22;43005;52.922;5.742;2023-12-20T09:43:24;8.60;99.90
57132;DHT22;43005;52.922;5.742;2023-12-20T09:45:57;8.50;99.90
57132;DHT22;43005;52.922;5.742;2023-12-20T09:48:27;8.40;99.90
57132;DHT22;43005;52.922;5.742;2023-12-20T09:50:55;8.40;99.90
57132;DHT22;43005;52.922;5.742;2023-12-20T09:53:23;8.40;99.90
57132;DHT22;43005;52.922;5.742;2023-12-20T09:55:56;8.40;99.90
57132;DHT22;43005;52.922;5.742;2023-12-20T09:58:24;8.40;99.90
57132;DHT22;43005;52.922;5.742;2023-12-20T10:00:54;8.40;99.90
57132;DHT22;43005;52.922;5.742;2023-12-20T10:03:25;8.40;99.90
57132;DHT22;43005;52.922;5.742;2023-12-20T10:05:54;8.40;99.90
57132;DHT22;43005;52.922;5.742;2023-12-20T10:08:21;8.40;99.90
57132;DHT22;43005;52.922;5.742;2023-12-20T10:10:48;8.40;99.90
57132;DHT22;43005;52.922;5.742;2023-12-20T10:13:15;8.50;99.90
57132;DHT22;43005;52.922;5.742;2023-12-20T10:15:43;8.50;99.90
57132;DHT22;43005;52.922;5.742;2023-12-20T10:18:12;8.50;99.90
57132;DHT22;43005;52.922;5.742;2023-12-20T10:20:41;8.50;99.90
57132;DHT22;43005;52.922;5.742;2023-12-20T10:23:08;8.50;99.90
57132;DHT22;43005;52.922;5.742;2023-12-20T10:25:35;8.60;99.90
57132;DHT22;43005;52.922;5.742;2023-12-20T10:28:09;8.60;99.90
57132;DHT22;43005;52.922;5.742;2023-12-20T10:30:37;8.60;99.90
57132;DHT22;43005;52.922;5.742;2023-12-20T10:33:05;8.60;99.90
57132;DHT22;43005;52.922;5.742;2023-12-20T10:35:34;8.60;99.90
57132;DHT22;43005;52.922;5.742;2023-12-20T10:38:04;8.60;99.90
57132;DHT22;43005;52.922;5.742;2023-12-20T10:40:32;8.60;99.90
57132;DHT22;43005;52.922;5.742;2023-12-20T10:43:02;8.50;99.90
57132;DHT22;43005;52.922;5.742;2023-12-20T10:45:30;8.50;99.90
57132;DHT22;43005;52.922;5.742;2023-12-20T10:47:58;8.50;99.90
57132;DHT22;43005;52.922;5.742;2023-12-20T10:50:26;8.50;99.90
57132;DHT22;43005;52.922;5.742;2023-12-20T10:52:55;8.50;99.90
57132;DHT22;43005;52.922;5.742;2023-12-20T10:55:22;8.50;99.90
57132;DHT22;43005;52.922;5.742;2023-12-20T10:57:50;8.60;99.90
57132;DHT22;43005;52.922;5.742;2023-12-20T11:00:18;8.60;99.90
57132;DHT22;43005;52.922;5.742;2023-12-20T11:02:45;8.60;99.90
57132;DHT22;43005;52.922;5.742;2023-12-20T11:05:22;8.60;99.90
57132;DHT22;43005;52.922;5.742;2023-12-20T11:07:57;8.60;99.90
57132;DHT22;43005;52.922;5.742;2023-12-20T11:10:31;8.60;99.90
57132;DHT22;43005;52.922;5.742;2023-12-20T11:13:04;8.60;99.90
57132;DHT22;43005;52.922;5.742;2023-12-20T11:15:35;8.60;99.90
57132;DHT22;43005;52.922;5.742;2023-12-20T11:18:04;8.60;99.90
57132;DHT22;43005;52.922;5.742;2023-12-20T11:20:36;8.60;99.90
57132;DHT22;43005;52.922;5.742;2023-12-20T11:23:06;8.70;99.90
57132;DHT22;43005;52.922;5.742;2023-12-20T11:25:52;8.70;99.90
57132;DHT22;43005;52.922;5.742;2023-12-20T11:28:21;8.60;99.90
57132;DHT22;43005;52.922;5.742;2023-12-20T11:30:50;8.70;99.90
57132;DHT22;43005;52.922;5.742;2023-12-20T11:33:21;8.70;99.90
57132;DHT22;43005;52.922;5.742;2023-12-20T11:35:48;8.70;99.90
57132;DHT22;43005;52.922;5.742;2023-12-20T11:38:19;8.70;99.90
57132;DHT22;43005;52.922;5.742;2023-12-20T11:40:48;8.70;99.90
57132;DHT22;43005;52.922;5.742;2023-12-20T11:43:30;8.60;99.90
57132;DHT22;43005;52.922;5.742;2023-12-20T11:46:03;8.60;99.90
57132;DHT22;43005;52.922;5.742;2023-12-20T11:48:30;8.50;99.90
57132;DHT22;43005;52.922;5.742;2023-12-20T11:50:58;8.50;99.90
57132;DHT22;43005;52.922;5.742;2023-12-20T11:53:26;8.40;99.90
57132;DHT22;43005;52.922;5.742;2023-12-20T11:55:54;8.30;99.90
57132;DHT22;43005;52.922;5.742;2023-12-20T11:58:21;8.30;99.90
57132;DHT22;43005;52.922;5.742;2023-12-20T12:00:49;8.30;99.90
57132;DHT22;43005;52.922;5.742;2023-12-20T12:03:17;8.30;99.90
57132;DHT22;43005;52.922;5.742;2023-12-20T12:05:47;8.30;99.90
57132;DHT22;43005;52.922;5.742;2023-12-20T12:08:14;8.30;99.90
57132;DHT22;43005;52.922;5.742;2023-12-20T12:10:42;8.20;99.90
57132;DHT22;43005;52.922;5.742;2023-12-20T12:13:09;8.20;99.90
57132;DHT22;43005;52.922;5.742;2023-12-20T12:15:36;8.20;99.90
57132;DHT22;43005;52.922;5.742;2023-12-20T12:18:04;8.20;99.90
57132;DHT22;43005;52.922;5.742;2023-12-20T12:20:31;8.20;99.90
57132;DHT22;43005;52.922;5.742;2023-12-20T12:22:59;8.20;99.90
57132;DHT22;43005;52.922;5.742;2023-12-20T12:25:26;8.20;99.90
57132;DHT22;43005;52.922;5.742;2023-12-20T12:27:55;8.20;99.90
57132;DHT22;43005;52.922;5.742;2023-12-20T12:30:22;8.20;99.90
57132;DHT22;43005;52.922;5.742;2023-12-20T12:32:50;8.20;99.90
57132;DHT22;43005;52.922;5.742;2023-12-20T12:35:18;8.30;99.90
57132;DHT22;43005;52.922;5.742;2023-12-20T12:37:45;8.30;99.90
57132;DHT22;43005;52.922;5.742;2023-12-20T12:40:14;8.40;99.90
57132;DHT22;43005;52.922;5.742;2023-12-20T12:42:42;8.30;99.90
57132;DHT22;43005;52.922;5.742;2023-12-20T12:45:11;8.40;99.90
57132;DHT22;43005;52.922;5.742;2023-12-20T12:47:39;8.40;99.90
57132;DHT22;43005;52.922;5.742;2023-12-20T12:50:06;8.40;99.90
57132;DHT22;43005;52.922;5.742;2023-12-20T12:52:34;8.50;99.90
57132;DHT22;43005;52.922;5.742;2023-12-20T12:55:01;8.50;99.90
57132;DHT22;43005;52.922;5.742;2023-12-20T12:57:29;8.50;99.90
57132;DHT22;43005;52.922;5.742;2023-12-20T12:59:55;8.60;99.90
57132;DHT22;43005;52.922;5.742;2023-12-20T13:02:25;8.60;99.90
57132;DHT22;43005;52.922;5.742;2023-12-20T13:04:52;8.60;99.90
57132;DHT22;43005;52.922;5.742;2023-12-20T13:07:19;8.60;99.90
57132;DHT22;43005;52.922;5.742;2023-12-20T13:09:46;8.60;99.90
57132;DHT22;43005;52.922;5.742;2023-12-20T13:12:13;8.60;99.90
57132;DHT22;43005;52.922;5.742;2023-12-20T13:14:40;8.70;99.90
57132;DHT22;43005;52.922;5.742;2023-12-20T13:17:07;8.70;99.90
57132;DHT22;43005;52.922;5.742;2023-12-20T13:19:35;8.70;99.90
57132;DHT22;43005;52.922;5.742;2023-12-20T13:22:02;8.80;99.90
57132;DHT22;43005;52.922;5.742;2023-12-20T13:24:29;8.80;99.90
57132;DHT22;43005;52.922;5.742;2023-12-20T13:26:58;8.90;99.90
57132;DHT22;43005;52.922;5.742;2023-12-20T13:29:25;8.80;99.90
57132;DHT22;43005;52.922;5.742;2023-12-20T13:31:53;8.80;99.90
57132;DHT22;43005;52.922;5.742;2023-12-20T13:34:21;8.80;99.90
57132;DHT22;43005;52.922;5.742;2023-12-20T13:36:52;8.80;99.90
57132;DHT22;43005;52.922;5.742;2023-12-20T13:39:19;8.80;99.90
57132;DHT22;43005;52.922;5.742;2023-12-20T13:41:47;8.80;99.90
57132;DHT22;43005;52.922;5.742;2023-12-20T13:44:14;8.80;99.90
57132;DHT22;43005;52.922;5.742;2023-12-20T13:46:41;8.90;99.90
57132;DHT22;43005;52.922;5.742;2023-12-20T13:49:08;8.90;99.90
57132;DHT22;43005;52.922;5.742;2023-12-20T13:51:35;9.00;99.90
57132;DHT22;43005;52.922;5.742;2023-12-20T13:54:04;9.00;99.90
57132;DHT22;43005;52.922;5.742;2023-12-20T13:56:31;9.00;99.90
57132;DHT22;43005;52.922;5.742;2023-12-20T13:58:58;9.10;99.90
57132;DHT22;43005;52.922;5.742;2023-12-20T14:01:26;9.20;99.90
57132;DHT22;43005;52.922;5.742;2023-12-20T14:03:53;9.20;99.90
57132;DHT22;43005;52.922;5.742;2023-12-20T14:06:20;9.30;99.90
57132;DHT22;43005;52.922;5.742;2023-12-20T14:08:47;9.20;99.90
57132;DHT22;43005;52.922;5.742;2023-12-20T14:11:15;9.30;99.90
57132;DHT22;43005;52.922;5.742;2023-12-20T14:13:43;9.20;99.90
57132;DHT22;43005;52.922;5.742;2023-12-20T14:16:10;9.20;99.90
57132;DHT22;43005;52.922;5.742;2023-12-20T14:18:38;9.20;99.90
57132;DHT22;43005;52.922;5.742;2023-12-20T14:21:05;9.20;99.90
57132;DHT22;43005;52.922;5.742;2023-12-20T14:23:33;9.20;99.90
57132;DHT22;43005;52.922;5.742;2023-12-20T14:26:00;9.20;99.90
57132;DHT22;43005;52.922;5.742;2023-12-20T14:28:29;9.10;99.90
57132;DHT22;43005;52.922;5.742;2023-12-20T14:30:56;9.10;99.90
57132;DHT22;43005;52.922;5.742;2023-12-20T14:33:23;9.10;99.90
57132;DHT22;43005;52.922;5.742;2023-12-20T14:35:50;9.10;99.90
57132;DHT22;43005;52.922;5.742;2023-12-20T14:38:18;9.10;99.90
57132;DHT22;43005;52.922;5.742;2023-12-20T14:40:45;9.00;99.90
57132;DHT22;43005;52.922;5.742;2023-12-20T14:43:12;9.10;99.90
57132;DHT22;43005;52.922;5.742;2023-12-20T14:45:40;9.10;99.90
57132;DHT22;43005;52.922;5.742;2023-12-20T14:48:07;9.10;99.90
57132;DHT22;43005;52.922;5.742;2023-12-20T14:50:34;9.00;99.90
57132;DHT22;43005;52.922;5.742;2023-12-20T14:53:02;9.10;99.90
57132;DHT22;43005;52.922;5.742;2023-12-20T14:55:29;9.00;99.90
57132;DHT22;43005;52.922;5.742;2023-12-20T14:57:56;9.00;99.90
57132;DHT22;43005;52.922;5.742;2023-12-20T15:00:26;9.00;99.90
57132;DHT22;43005;52.922;5.742;2023-12-20T15:02:54;9.10;99.90
57132;DHT22;43005;52.922;5.742;2023-12-20T15:05:22;9.10;99.90
57132;DHT22;43005;52.922;5.742;2023-12-20T15:07:49;9.10;99.90
57132;DHT22;43005;52.922;5.742;2023-12-20T15:10:15;9.10;99.90
57132;DHT22;43005;52.922;5.742;2023-12-20T15:12:43;9.10;99.90
57132;DHT22;43005;52.922;5.742;2023-12-20T15:15:11;9.10;99.90
57132;DHT22;43005;52.922;5.742;2023-12-20T15:17:39;9.10;99.90
57132;DHT22;43005;52.922;5.742;2023-12-20T15:20:08;9.00;99.90
57132;DHT22;43005;52.922;5.742;2023-12-20T15:22:37;9.00;99.90
57132;DHT22;43005;52.922;5.742;2023-12-20T15:25:05;9.00;99.90
57132;DHT22;43005;52.922;5.742;2023-12-20T15:27:34;9.00;99.90
57132;DHT22;43005;52.922;5.742;2023-12-20T15:30:03;9.00;99.90
57132;DHT22;43005;52.922;5.742;2023-12-20T15:32:30;9.00;99.90
57132;DHT22;43005;52.922;5.742;2023-12-20T15:34:58;9.00;99.90
57132;DHT22;43005;52.922;5.742;2023-12-20T15:37:26;9.00;99.90
57132;DHT22;43005;52.922;5.742;2023-12-20T15:39:53;9.00;99.90
57132;DHT22;43005;52.922;5.742;2023-12-20T15:42:20;9.00;99.90
57132;DHT22;43005;52.922;5.742;2023-12-20T15:44:47;9.00;99.90
57132;DHT22;43005;52.922;5.742;2023-12-20T15:47:14;8.90;99.90
57132;DHT22;43005;52.922;5.742;2023-12-20T15:49:41;8.90;99.90